Time;durP1;ratioP1;P1;durP2;ratioP2;P2;SDS_P1;SDS_P2;PMS_P1;PMS_P2;Temp;Humidity;BMP_temperature;BMP_pressure;BME280_temperature;BME280_humidity;BME280_pressure;Samples;Min_cycle;Max_cycle;Signal;HPM_P1;HPM_P2
2022/10/09 00:01:17;;;;;;;3.77;1.53;;;;;;;9.13;83.92;101752.03;5024504;28;20437;-82
2022/10/09 00:03:46;;;;;;;5.60;1.60;;;;;;;9.13;83.54;101754.69;5015274;28;20203;-82
2022/10/09 00:06:15;;;;;;;5.70;1.33;;;;;;;9.12;83.29;101747.63;5019735;28;20563;-82
2022/10/09 00:08:43;;;;;;;6.43;1.53;;;;;;;9.11;83.52;101749.41;5022404;28;20782;-82
2022/10/09 00:11:13;;;;;;;5.97;1.70;;;;;;;9.11;83.69;101759.19;5015082;28;20200;-82
2022/10/09 00:13:39;;;;;;;5.33;1.97;;;;;;;9.11;83.65;101753.88;5018859;28;20210;-82
2022/10/09 00:16:10;;;;;;;6.30;2.30;;;;;;;9.09;84.15;101756.59;5020342;28;20665;-82
2022/10/09 00:18:37;;;;;;;7.93;2.23;;;;;;;9.09;84.07;101759.25;5021623;28;20241;-82
2022/10/09 00:21:04;;;;;;;7.63;2.07;;;;;;;9.07;83.38;101761.09;5019017;28;20199;-82
2022/10/09 00:23:34;;;;;;;9.80;1.97;;;;;;;9.07;84.15;101754.91;5019772;28;20803;-82
2022/10/09 00:26:01;;;;;;;4.63;1.73;;;;;;;9.04;83.67;101755.91;5014659;28;20194;-85
2022/10/09 00:28:30;;;;;;;6.40;1.73;;;;;;;9.02;83.93;101763.94;5018157;28;20227;-85
2022/10/09 00:30:57;;;;;;;4.83;1.67;;;;;;;9.00;83.98;101763.13;5013119;28;20261;-86
2022/10/09 00:33:23;;;;;;;6.03;1.87;;;;;;;8.98;83.81;101757.00;5022637;28;20203;-85
2022/10/09 00:35:50;;;;;;;5.07;1.70;;;;;;;8.96;84.02;101765.94;5018293;28;20206;-86
2022/10/09 00:38:17;;;;;;;6.03;1.47;;;;;;;8.96;83.97;101766.81;5016248;28;20227;-85
2022/10/09 00:40:43;;;;;;;4.93;1.80;;;;;;;8.93;83.75;101769.63;5020136;28;20211;-85
2022/10/09 00:43:15;;;;;;;5.93;2.10;;;;;;;8.91;83.81;101757.31;5015141;28;20607;-86
2022/10/09 00:45:50;;;;;;;6.17;1.70;;;;;;;8.88;84.04;101771.56;5023399;28;20198;-85
2022/10/09 00:48:18;;;;;;;8.77;2.07;;;;;;;8.86;84.45;101772.56;5016681;28;20222;-85
2022/10/09 00:50:49;;;;;;;5.83;1.60;;;;;;;8.85;84.15;101784.09;5020933;28;20195;-85
2022/10/09 00:53:19;;;;;;;8.00;1.80;;;;;;;8.81;84.44;101774.50;5016899;28;20197;-85
2022/10/09 00:55:46;;;;;;;5.70;1.70;;;;;;;8.79;84.27;101777.22;5012423;28;20211;-86
2022/10/09 00:58:13;;;;;;;4.03;1.87;;;;;;;8.77;84.81;101778.22;5012902;28;20254;-86
2022/10/09 01:00:40;;;;;;;5.47;1.37;;;;;;;8.75;84.34;101775.63;5018982;28;20227;-87
2022/10/09 01:03:08;;;;;;;4.47;1.77;;;;;;;8.74;84.06;101778.34;5016502;28;20278;-86
2022/10/09 01:05:43;;;;;;;5.10;2.00;;;;;;;8.69;84.97;101776.72;5014101;28;20629;-86
2022/10/09 01:08:18;;;;;;;9.73;1.80;;;;;;;8.68;84.55;101779.44;5012189;28;20234;-86
2022/10/09 01:10:54;;;;;;;6.43;1.97;;;;;;;8.66;84.80;101783.94;5012451;28;20194;-85
2022/10/09 01:13:25;;;;;;;8.37;1.50;;;;;;;8.63;84.46;101792.88;5015069;28;20206;-86
2022/10/09 01:15:54;;;;;;;5.40;1.60;;;;;;;8.61;85.03;101781.44;5011829;28;20195;-87
2022/10/09 01:18:29;;;;;;;6.70;1.90;;;;;;;8.60;85.48;101785.00;5008147;28;20731;-88
2022/10/09 01:21:01;;;;;;;10.23;1.50;;;;;;;8.59;85.17;101785.09;5009901;28;20636;-87
2022/10/09 01:23:47;;;;;;;5.40;1.73;;;;;;;8.57;85.96;101786.94;5009121;28;20206;-87
2022/10/09 01:26:34;;;;;;;4.60;1.50;;;;;;;8.54;85.33;101787.03;5010172;28;20222;-86
2022/10/09 01:29:07;;;;;;;6.83;1.63;;;;;;;8.51;85.81;101784.50;5007894;28;20214;-86
2022/10/09 01:31:36;;;;;;;3.87;1.50;;;;;;;8.43;85.31;101786.56;5015479;28;20662;-86
2022/10/09 01:34:03;;;;;;;4.50;1.33;;;;;;;8.36;85.09;101788.59;5010801;28;20685;-85
2022/10/09 01:36:30;;;;;;;3.50;1.70;;;;;;;8.29;85.20;101787.88;5012095;28;20207;-87
2022/10/09 01:38:59;;;;;;;3.97;1.50;;;;;;;8.22;84.99;101788.19;5014597;28;20230;-86
2022/10/09 01:41:26;;;;;;;4.47;1.47;;;;;;;8.16;84.93;101786.59;5013848;28;20222;-87
2022/10/09 01:43:52;;;;;;;3.07;1.33;;;;;;;8.13;85.52;101786.69;5016724;28;20468;-86
2022/10/09 01:46:27;;;;;;;6.23;1.90;;;;;;;8.09;84.63;101781.56;5012789;28;20211;-86
2022/10/09 01:49:13;;;;;;;4.10;1.83;;;;;;;8.07;85.51;101786.03;5007527;28;20218;-86
2022/10/09 01:51:46;;;;;;;6.93;1.60;;;;;;;8.03;85.71;101790.63;5011683;28;20233;-86
2022/10/09 01:54:14;;;;;;;3.67;1.30;;;;;;;7.99;85.29;101795.16;5013113;28;20601;-87
2022/10/09 01:56:46;;;;;;;9.33;2.03;;;;;;;7.96;84.90;101791.72;5005621;28;20231;-85
2022/10/09 01:59:16;;;;;;;5.50;2.00;;;;;;;7.93;85.73;101786.53;5005475;28;20233;-85
2022/10/09 02:01:46;;;;;;;5.37;2.30;;;;;;;7.90;85.31;101783.97;5008136;28;20254;-85
2022/10/09 02:04:16;;;;;;;4.87;1.70;;;;;;;7.87;85.25;101784.97;5004081;28;20207;-85
2022/10/09 02:06:45;;;;;;;3.43;1.70;;;;;;;7.86;85.15;101782.38;5007921;28;20235;-86
2022/10/09 02:09:15;;;;;;;4.03;1.80;;;;;;;7.81;85.64;101779.84;5001943;28;20353;-86
2022/10/09 02:11:46;;;;;;;4.13;2.03;;;;;;;7.77;85.56;101782.66;5012356;28;20576;-85
2022/10/09 02:14:13;;;;;;;2.73;1.90;;;;;;;7.72;86.00;101779.28;5012863;28;20253;-85
2022/10/09 02:16:43;;;;;;;3.80;2.00;;;;;;;7.66;85.60;101775.94;5009434;28;20234;-86
2022/10/09 02:19:15;;;;;;;5.67;2.50;;;;;;;7.60;85.31;101781.44;5011006;28;20246;-85
2022/10/09 02:21:46;;;;;;;6.63;2.20;;;;;;;7.56;85.94;101779.81;5012156;28;20294;-85
2022/10/09 02:24:17;;;;;;;3.67;2.00;;;;;;;7.52;85.53;101780.84;5010904;28;20211;-86
2022/10/09 02:26:44;;;;;;;5.10;2.10;;;;;;;7.51;85.40;101783.53;5014914;28;20610;-86
2022/10/09 02:29:12;;;;;;;5.87;2.00;;;;;;;7.47;86.21;101779.25;5019909;28;20199;-86
2022/10/09 02:31:41;;;;;;;4.80;2.00;;;;;;;7.44;85.68;101795.25;5011225;28;20566;-85
2022/10/09 02:34:10;;;;;;;4.40;1.70;;;;;;;7.40;85.88;101788.31;5007558;28;20226;-86
2022/10/09 02:36:39;;;;;;;5.27;1.87;;;;;;;7.37;85.38;101794.56;5010839;28;20198;-86
2022/10/09 02:39:06;;;;;;;3.30;2.03;;;;;;;7.35;85.81;101799.03;5015528;28;20230;-86
2022/10/09 02:41:33;;;;;;;6.10;2.40;;;;;;;7.31;86.11;101798.28;5011593;28;20210;-86
2022/10/09 02:44:00;;;;;;;4.40;2.30;;;;;;;7.29;85.59;101801.91;5012432;28;20199;-85
2022/10/09 02:46:27;;;;;;;4.60;2.30;;;;;;;7.25;85.99;101801.13;5017996;28;20423;-85
2022/10/09 02:48:53;;;;;;;4.57;1.90;;;;;;;7.21;85.79;101795.97;5015543;28;20287;-86
2022/10/09 02:51:20;;;;;;;5.43;2.30;;;;;;;7.19;86.26;101795.13;5016992;28;20871;-86
2022/10/09 02:53:48;;;;;;;5.90;2.30;;;;;;;7.16;86.37;101793.47;5014331;28;20211;-86
2022/10/09 02:56:15;;;;;;;4.23;2.27;;;;;;;7.13;85.93;101793.56;5009988;28;20203;-85
2022/10/09 02:58:41;;;;;;;3.77;2.50;;;;;;;7.11;85.80;101802.47;5008368;28;20228;-85
2022/10/09 03:01:07;;;;;;;5.03;2.70;;;;;;;7.08;86.54;101799.91;5020556;28;20217;-85
2022/10/09 03:03:34;;;;;;;6.27;2.50;;;;;;;7.06;86.11;101802.59;5009146;28;20208;-85
2022/10/09 03:06:01;;;;;;;5.13;2.30;;;;;;;7.03;85.99;101805.34;5010708;28;20688;-85
2022/10/09 03:08:28;;;;;;;3.53;1.73;;;;;;;6.99;86.63;101795.75;5010482;28;20640;-86
2022/10/09 03:10:56;;;;;;;5.03;1.80;;;;;;;6.95;85.66;101792.34;5006349;28;20198;-85
2022/10/09 03:13:23;;;;;;;3.57;2.00;;;;;;;6.93;86.86;101793.31;5016234;28;20206;-84
2022/10/09 03:15:49;;;;;;;2.30;1.70;;;;;;;6.90;87.04;101788.09;5014466;28;20211;-85
2022/10/09 03:18:16;;;;;;;4.83;1.70;;;;;;;6.87;86.96;101789.06;5015111;28;20238;-85
2022/10/09 03:20:42;;;;;;;3.60;1.70;;;;;;;6.86;86.69;101795.25;5011110;28;21073;-85
2022/10/09 03:23:09;;;;;;;3.50;1.80;;;;;;;6.83;86.49;101791.84;5008743;28;20214;-86
2022/10/09 03:25:35;;;;;;;4.47;1.77;;;;;;;6.80;86.55;101787.53;5009529;28;20237;-86
2022/10/09 03:28:03;;;;;;;4.73;2.00;;;;;;;6.76;87.07;101791.16;5020169;28;20248;-86
2022/10/09 03:30:30;;;;;;;4.80;2.00;;;;;;;6.74;86.97;101792.13;5012995;28;20210;-86
2022/10/09 03:32:56;;;;;;;3.47;1.70;;;;;;;6.71;87.00;101793.06;5007565;28;20245;-85
2022/10/09 03:35:22;;;;;;;2.33;1.50;;;;;;;6.67;87.26;101799.34;5007667;28;20211;-85
2022/10/09 03:37:49;;;;;;;3.67;1.70;;;;;;;6.65;87.30;101798.53;5009755;28;20222;-86
2022/10/09 03:40:15;;;;;;;3.47;1.60;;;;;;;6.62;87.24;101793.34;5010622;28;20245;-85
2022/10/09 03:42:42;;;;;;;4.43;1.70;;;;;;;6.59;87.26;101793.44;5010818;28;20215;-86
2022/10/09 03:45:10;;;;;;;5.73;2.00;;;;;;;6.56;88.06;101793.50;5013415;28;20202;-85
2022/10/09 03:47:37;;;;;;;5.20;2.00;;;;;;;6.54;87.63;101798.84;5009507;28;20227;-85
2022/10/09 03:50:03;;;;;;;8.33;2.13;;;;;;;6.53;87.90;101802.41;5012419;28;20203;-86
2022/10/09 03:52:30;;;;;;;4.27;1.73;;;;;;;6.49;88.07;101807.81;5009678;28;20215;-85
2022/10/09 03:54:56;;;;;;;4.43;1.80;;;;;;;6.46;88.33;101808.75;5007387;28;20203;-85
2022/10/09 03:57:23;;;;;;;3.30;1.43;;;;;;;6.45;87.95;101806.19;5010780;28;20227;-85
2022/10/09 03:59:49;;;;;;;3.97;1.73;;;;;;;6.42;88.08;101807.13;5015467;28;20234;-84
2022/10/09 04:02:17;;;;;;;5.10;1.73;;;;;;;6.39;88.49;101804.56;5012993;28;20461;-85
2022/10/09 04:04:43;;;;;;;4.80;2.10;;;;;;;6.36;88.11;101809.94;5019944;28;20219;-86
2022/10/09 04:07:10;;;;;;;6.13;2.03;;;;;;;6.34;88.21;101808.25;5015900;28;20230;-85
2022/10/09 04:09:36;;;;;;;4.40;1.90;;;;;;;6.32;88.72;101810.06;5014648;28;20215;-85
2022/10/09 04:12:03;;;;;;;3.77;2.40;;;;;;;6.28;88.34;101812.78;5015366;28;20206;-86
2022/10/09 04:14:29;;;;;;;6.37;1.97;;;;;;;6.25;88.66;101810.25;5004504;28;20551;-86
2022/10/09 04:16:56;;;;;;;6.50;2.20;;;;;;;6.21;88.65;101808.59;5010828;28;20230;-86
2022/10/09 04:19:24;;;;;;;4.07;2.13;;;;;;;6.18;88.91;101806.03;5007129;28;20701;-85
2022/10/09 04:21:50;;;;;;;3.47;2.30;;;;;;;6.14;88.57;101809.66;5013976;28;20712;-85
2022/10/09 04:24:17;;;;;;;3.53;2.00;;;;;;;6.12;88.98;101807.94;5010279;28;20214;-85
2022/10/09 04:26:43;;;;;;;7.83;2.83;;;;;;;6.09;89.12;101813.34;5019320;28;20231;-85
2022/10/09 04:29:11;;;;;;;5.53;2.00;;;;;;;6.06;89.43;101809.00;5015190;28;20202;-85
2022/10/09 04:31:37;;;;;;;3.63;2.17;;;;;;;6.04;89.57;101805.53;5011311;28;20214;-85
2022/10/09 04:34:04;;;;;;;5.23;2.50;;;;;;;6.01;89.80;101802.97;5015617;28;20230;-85
2022/10/09 04:36:31;;;;;;;4.67;2.10;;;;;;;5.96;89.88;101802.19;5012248;28;20742;-85
2022/10/09 04:38:58;;;;;;;6.40;2.27;;;;;;;5.93;90.07;101803.16;5018543;28;20233;-85
2022/10/09 04:41:24;;;;;;;6.13;2.40;;;;;;;5.91;90.19;101814.69;5014187;28;20218;-85
2022/10/09 04:43:54;;;;;;;5.67;2.50;;;;;;;5.89;90.14;101806.81;5017096;28;20222;-85
2022/10/09 04:46:20;;;;;;;6.67;2.60;;;;;;;5.86;90.31;101805.97;5017104;28;20233;-85
2022/10/09 04:48:48;;;;;;;4.40;2.13;;;;;;;5.84;90.40;101807.78;5021185;28;20203;-85
2022/10/09 04:51:16;;;;;;;7.87;2.70;;;;;;;5.82;90.85;101801.66;5013841;28;20199;-85
2022/10/09 04:53:45;;;;;;;7.83;2.57;;;;;;;5.80;91.06;101814.91;5018781;28;20210;-84
2022/10/09 04:56:13;;;;;;;5.37;2.50;;;;;;;5.79;91.11;101813.16;5015204;28;20238;-84
2022/10/09 04:58:40;;;;;;;7.27;2.90;;;;;;;5.79;91.37;101804.38;5008104;28;20239;-84
2022/10/09 05:01:08;;;;;;;5.63;2.97;;;;;;;5.79;91.45;101809.66;5016203;28;20221;-84
2022/10/09 05:03:35;;;;;;;7.10;2.83;;;;;;;5.78;91.81;101808.78;5011444;28;20215;-84
2022/10/09 05:06:02;;;;;;;5.97;2.70;;;;;;;5.79;91.48;101809.66;5016470;28;20683;-84
2022/10/09 05:08:30;;;;;;;4.87;2.70;;;;;;;5.80;91.73;101819.31;5017352;28;20216;-85
2022/10/09 05:11:01;;;;;;;5.23;2.50;;;;;;;5.79;92.12;101814.94;5014592;28;20230;-85
2022/10/09 05:13:29;;;;;;;4.20;2.33;;;;;;;5.78;91.96;101808.78;5013318;28;20318;-85
2022/10/09 05:15:55;;;;;;;6.60;3.43;;;;;;;5.77;92.14;101811.47;5015135;28;21623;-85
2022/10/09 05:18:22;;;;;;;7.20;4.30;;;;;;;5.76;92.28;101809.72;5016199;28;20239;-85
2022/10/09 05:20:48;;;;;;;7.33;3.80;;;;;;;5.76;92.21;101812.38;5016792;28;20202;-85
2022/10/09 05:23:15;;;;;;;13.50;4.07;;;;;;;5.73;92.57;101815.13;5013336;28;20237;-85
2022/10/09 05:25:41;;;;;;;5.63;3.17;;;;;;;5.72;92.10;101823.97;5026478;28;20417;-86
2022/10/09 05:28:09;;;;;;;4.80;3.30;;;;;;;5.71;92.55;101824.84;5022374;28;20238;-85
2022/10/09 05:30:40;;;;;;;4.90;2.90;;;;;;;5.69;92.61;101819.59;5012864;28;20212;-84
2022/10/09 05:33:07;;;;;;;6.30;2.50;;;;;;;5.69;92.92;101816.97;5016231;28;20202;-84
2022/10/09 05:35:33;;;;;;;5.53;2.90;;;;;;;5.70;93.08;101824.00;5014629;28;20287;-84
2022/10/09 05:37:59;;;;;;;4.60;2.60;;;;;;;5.69;93.06;101822.25;5018243;28;20229;-85
2022/10/09 05:40:26;;;;;;;3.27;2.50;;;;;;;5.69;93.12;101822.25;5024147;28;20227;-84
2022/10/09 05:42:52;;;;;;;6.33;3.27;;;;;;;5.70;93.38;101829.28;5013655;28;20207;-85
2022/10/09 05:45:20;;;;;;;8.97;3.63;;;;;;;5.70;93.48;101825.75;5012926;28;20210;-84
2022/10/09 05:47:47;;;;;;;7.80;3.80;;;;;;;5.69;93.14;101827.53;5014621;28;20591;-85
2022/10/09 05:50:13;;;;;;;5.23;2.90;;;;;;;5.69;93.13;101824.03;5007245;28;20211;-85
2022/10/09 05:52:39;;;;;;;4.73;2.70;;;;;;;5.68;93.07;101828.44;5011295;28;20217;-84
2022/10/09 05:55:06;;;;;;;3.30;2.57;;;;;;;5.67;93.35;101829.34;5006543;28;20200;-85
2022/10/09 05:57:33;;;;;;;7.37;3.33;;;;;;;5.67;93.08;101831.13;5013974;28;20245;-86
2022/10/09 05:59:59;;;;;;;3.97;3.30;;;;;;;5.64;93.08;101829.41;5016128;28;20245;-85
2022/10/09 06:02:27;;;;;;;4.57;3.20;;;;;;;5.63;93.03;101830.31;5010067;28;20250;-86
2022/10/09 06:04:54;;;;;;;4.93;2.80;;;;;;;5.62;92.82;101835.63;5017188;28;20222;-84
2022/10/09 06:07:20;;;;;;;4.07;2.87;;;;;;;5.60;92.78;101835.66;5017123;28;20735;-85
2022/10/09 06:09:46;;;;;;;4.70;2.50;;;;;;;5.60;92.64;101830.38;5017441;28;20568;-85
2022/10/09 06:12:13;;;;;;;5.30;3.13;;;;;;;5.59;92.69;101839.22;5016531;28;20214;-85
2022/10/09 06:14:39;;;;;;;5.83;2.80;;;;;;;5.58;92.67;101841.00;5011436;28;20650;-85
2022/10/09 06:17:06;;;;;;;5.23;3.30;;;;;;;5.58;92.86;101835.72;5014433;28;20584;-84
2022/10/09 06:19:34;;;;;;;5.73;3.40;;;;;;;5.58;92.75;101838.34;5004976;28;20584;-85
2022/10/09 06:22:00;;;;;;;5.47;3.50;;;;;;;5.59;92.80;101834.81;5015054;28;20294;-85
2022/10/09 06:24:26;;;;;;;6.10;3.97;;;;;;;5.61;92.84;101836.53;5017095;28;20215;-84
2022/10/09 06:26:53;;;;;;;4.10;3.50;;;;;;;5.61;92.95;101836.53;5014830;28;20223;-85
2022/10/09 06:29:20;;;;;;;6.40;3.73;;;;;;;5.62;92.99;101841.78;5021906;28;20202;-84
2022/10/09 06:31:46;;;;;;;6.97;3.43;;;;;;;5.63;93.29;101845.31;5007520;28;20695;-83
2022/10/09 06:34:12;;;;;;;10.33;4.07;;;;;;;5.65;93.35;101840.84;5007682;28;20207;-83
2022/10/09 06:36:40;;;;;;;8.73;3.60;;;;;;;5.68;93.55;101848.72;5008043;28;20207;-83
2022/10/09 06:39:07;;;;;;;9.00;4.23;;;;;;;5.73;93.67;101854.78;5009533;28;20209;-83
2022/10/09 06:41:34;;;;;;;6.37;4.00;;;;;;;5.78;94.24;101850.22;5006520;28;20610;-83
2022/10/09 06:44:04;;;;;;;5.87;3.90;;;;;;;5.83;94.44;101846.56;5006442;28;20210;-83
2022/10/09 06:46:33;;;;;;;6.63;3.83;;;;;;;5.89;94.73;101851.75;5018100;28;20202;-83
2022/10/09 06:49:00;;;;;;;7.53;4.30;;;;;;;5.95;94.92;101848.06;5013282;28;20203;-85
2022/10/09 06:51:27;;;;;;;8.03;4.10;;;;;;;6.01;94.76;101850.56;5013134;28;20203;-85
2022/10/09 06:53:57;;;;;;;6.33;4.10;;;;;;;6.08;95.91;101854.78;5017834;28;20199;-83
2022/10/09 06:56:26;;;;;;;8.53;4.23;;;;;;;6.11;95.85;101859.97;5019973;28;20222;-85
2022/10/09 06:58:53;;;;;;;8.43;4.10;;;;;;;6.18;96.57;101861.56;5014315;28;20210;-85
2022/10/09 07:01:22;;;;;;;7.17;4.40;;;;;;;6.24;96.91;101858.78;5012981;28;20238;-85
2022/10/09 07:03:54;;;;;;;6.00;4.13;;;;;;;6.33;96.93;101870.00;5013864;28;20266;-85
2022/10/09 07:06:21;;;;;;;7.53;4.40;;;;;;;6.37;97.40;101869.03;5010759;28;20655;-83
2022/10/09 07:08:51;;;;;;;7.07;4.47;;;;;;;6.44;97.43;101862.69;5014136;28;20208;-84
2022/10/09 07:11:21;;;;;;;6.50;4.13;;;;;;;6.52;97.59;101871.25;5012904;28;20199;-84
2022/10/09 07:13:49;;;;;;;7.07;4.53;;;;;;;6.58;97.77;101863.16;5017960;28;20207;-85
2022/10/09 07:16:19;;;;;;;6.63;4.50;;;;;;;6.65;97.97;101871.78;5019532;28;20198;-85
2022/10/09 07:18:45;;;;;;;7.77;4.47;;;;;;;6.71;98.46;101866.31;5012684;28;20227;-84
2022/10/09 07:21:12;;;;;;;9.83;4.47;;;;;;;6.79;99.08;101880.22;5020752;28;20242;-85
2022/10/09 07:23:39;;;;;;;8.60;4.70;;;;;;;6.87;99.17;101872.94;5016947;28;20233;-85
2022/10/09 07:26:11;;;;;;;8.93;4.40;;;;;;;6.96;99.47;101872.69;5020305;28;20297;-84
2022/10/09 07:28:40;;;;;;;9.60;4.67;;;;;;;7.05;99.89;101875.03;5015758;28;20230;-85
2022/10/09 07:31:06;;;;;;;7.27;4.40;;;;;;;7.16;99.82;101880.03;5014097;28;20612;-85
2022/10/09 07:33:33;;;;;;;7.70;4.07;;;;;;;7.27;100.00;101877.94;5023759;28;20214;-85
2022/10/09 07:36:01;;;;;;;8.20;4.40;;;;;;;7.38;100.00;101886.41;5011592;28;20566;-84
2022/10/09 07:38:28;;;;;;;7.13;4.07;;;;;;;7.48;100.00;101879.94;5014600;28;20226;-85
2022/10/09 07:40:55;;;;;;;9.50;4.80;;;;;;;7.64;100.00;101877.66;5016740;28;20222;-85
2022/10/09 07:43:21;;;;;;;8.83;4.10;;;;;;;7.78;100.00;101877.22;5019875;28;20612;-85
2022/10/09 07:45:49;;;;;;;5.47;4.00;;;;;;;7.90;100.00;101879.47;5011484;28;20207;-85
2022/10/09 07:48:15;;;;;;;5.23;4.10;;;;;;;8.05;100.00;101875.47;5014765;28;20226;-84
2022/10/09 07:50:42;;;;;;;7.03;3.87;;;;;;;8.22;100.00;101875.75;5011077;28;20198;-84
2022/10/09 07:53:08;;;;;;;6.10;3.80;;;;;;;8.39;100.00;101875.22;5009082;28;20208;-85
2022/10/09 07:55:35;;;;;;;7.83;3.83;;;;;;;8.52;100.00;101874.72;5007503;28;20202;-84
2022/10/09 07:58:02;;;;;;;5.57;3.70;;;;;;;8.67;100.00;101871.50;5009688;28;20226;-83
2022/10/09 08:00:28;;;;;;;6.77;3.40;;;;;;;8.83;100.00;101874.47;5003038;28;20232;-83
2022/10/09 08:02:56;;;;;;;6.80;3.87;;;;;;;8.97;100.00;101869.50;5000827;28;20206;-84
2022/10/09 08:05:23;;;;;;;6.10;3.87;;;;;;;9.14;100.00;101873.31;5001800;28;20211;-82
2022/10/09 08:07:49;;;;;;;7.07;3.50;;;;;;;9.27;100.00;101870.16;5006612;28;20230;-83
2022/10/09 08:10:16;;;;;;;7.47;3.73;;;;;;;9.43;100.00;101869.56;5008111;28;20199;-83
2022/10/09 08:12:42;;;;;;;5.80;4.07;;;;;;;9.54;99.49;101872.66;5005465;28;20291;-85
2022/10/09 08:15:09;;;;;;;6.43;3.23;;;;;;;9.65;98.42;101873.97;5003879;28;20207;-85
2022/10/09 08:17:35;;;;;;;7.23;3.50;;;;;;;9.78;97.16;101873.47;5004905;28;20223;-85
2022/10/09 08:20:04;;;;;;;5.97;3.23;;;;;;;9.92;96.81;101873.78;5008895;28;20226;-87
2022/10/09 08:22:33;;;;;;;8.03;3.40;;;;;;;10.05;95.83;101873.19;5004171;28;20225;-85
2022/10/09 08:24:59;;;;;;;6.07;3.20;;;;;;;10.23;95.35;101874.25;5010711;28;20231;-85
2022/10/09 08:27:26;;;;;;;8.53;2.80;;;;;;;10.40;94.53;101876.19;5007106;28;20232;-84
2022/10/09 08:29:52;;;;;;;5.60;3.17;;;;;;;10.60;93.92;101867.34;5008001;28;20687;-85
2022/10/09 08:32:19;;;;;;;4.17;2.43;;;;;;;10.81;93.26;101865.50;5001917;28;20205;-87
2022/10/09 08:34:46;;;;;;;5.50;2.77;;;;;;;11.00;92.16;101877.06;5002994;28;20215;-86
2022/10/09 08:37:14;;;;;;;5.47;2.50;;;;;;;11.19;90.74;101869.97;5003957;28;20232;-87
2022/10/09 08:39:40;;;;;;;5.23;2.10;;;;;;;11.34;89.40;101873.72;5009693;28;20211;-83
2022/10/09 08:42:07;;;;;;;7.53;2.40;;;;;;;11.49;87.90;101876.50;5008312;28;20205;-85
2022/10/09 08:44:39;;;;;;;6.70;2.27;;;;;;;11.63;87.29;101873.22;5002007;28;20569;-84
2022/10/09 08:47:18;;;;;;;6.57;2.33;;;;;;;11.83;86.80;101865.09;5000981;28;20220;-85
2022/10/09 08:49:50;;;;;;;4.77;2.43;;;;;;;12.01;85.54;101867.78;5013039;28;20884;-83
2022/10/09 08:52:24;;;;;;;6.90;3.00;;;;;;;12.16;84.43;101861.72;5010003;28;20206;-84
2022/10/09 08:54:53;;;;;;;6.33;3.87;;;;;;;12.29;83.43;101865.47;5007673;28;20203;-84
2022/10/09 08:57:21;;;;;;;4.93;2.90;;;;;;;12.41;83.17;101866.66;5002412;28;20225;-84
2022/10/09 08:59:48;;;;;;;6.80;3.63;;;;;;;12.52;82.35;101866.97;5013803;28;20249;-83
2022/10/09 09:02:35;;;;;;;4.37;3.03;;;;;;;12.64;82.19;101852.09;5012333;28;20218;-85
2022/10/09 09:05:14;;;;;;;5.50;3.30;;;;;;;12.75;81.59;101857.72;5012143;28;20208;-85
2022/10/09 09:07:48;;;;;;;6.73;2.90;;;;;;;12.84;80.69;101854.56;5010067;28;20242;-82
2022/10/09 09:10:25;;;;;;;5.80;3.13;;;;;;;12.91;80.08;101849.75;5010421;28;20200;-85
2022/10/09 09:12:56;;;;;;;5.70;3.20;;;;;;;12.94;79.27;101847.78;5009252;28;20199;-85
2022/10/09 09:15:36;;;;;;;4.40;2.90;;;;;;;13.01;79.03;101846.50;5009726;28;20207;-85
2022/10/09 09:18:14;;;;;;;7.07;3.03;;;;;;;13.13;78.53;101844.94;5009983;28;20223;-85
2022/10/09 09:20:51;;;;;;;9.27;3.03;;;;;;;13.22;78.04;101846.31;5010189;28;20211;-82
2022/10/09 09:23:22;;;;;;;6.37;2.50;;;;;;;13.30;77.58;101844.06;5013051;28;20660;-84
2022/10/09 09:25:49;;;;;;;3.00;1.63;;;;;;;13.38;76.87;101839.16;5010909;28;20206;-85
2022/10/09 09:28:19;;;;;;;6.27;2.30;;;;;;;13.48;76.37;101837.66;5017757;28;20233;-85
2022/10/09 09:30:51;;;;;;;6.40;2.40;;;;;;;13.61;76.53;101837.84;5010182;28;20198;-84
2022/10/09 09:33:25;;;;;;;6.50;2.23;;;;;;;13.77;75.21;101844.06;5011518;28;20203;-86
2022/10/09 09:36:01;;;;;;;6.63;2.13;;;;;;;13.92;74.36;101842.28;5008886;28;20210;-84
2022/10/09 09:38:29;;;;;;;7.93;2.70;;;;;;;14.06;73.96;101832.50;5014947;28;20230;-85
2022/10/09 09:40:55;;;;;;;8.30;2.50;;;;;;;14.19;73.61;101828.13;5017145;28;20227;-85
2022/10/09 09:43:25;;;;;;;7.33;1.90;;;;;;;14.33;72.78;101821.94;5014395;28;20214;-85
2022/10/09 09:45:53;;;;;;;5.43;1.43;;;;;;;14.46;71.52;101820.28;5011935;28;20207;-85
2022/10/09 09:48:30;;;;;;;4.47;1.30;;;;;;;14.51;69.34;101828.88;5013873;28;20231;-86
2022/10/09 09:50:57;;;;;;;4.00;1.40;;;;;;;14.53;68.57;101829.66;5017728;28;20204;-85
2022/10/09 09:53:32;;;;;;;5.93;1.33;;;;;;;14.57;67.84;101817.78;5014195;28;20207;-85
2022/10/09 09:55:58;;;;;;;2.23;0.97;;;;;;;14.62;66.76;101813.97;5013410;28;20204;-85
2022/10/09 09:58:32;;;;;;;3.80;1.40;;;;;;;14.66;66.07;101810.16;5009299;28;20231;-86
2022/10/09 10:01:01;;;;;;;6.43;1.50;;;;;;;14.69;65.61;101809.97;5011373;28;20234;-85
2022/10/09 10:03:29;;;;;;;6.43;1.30;;;;;;;14.73;65.19;101806.97;5007889;28;20265;-84
2022/10/09 10:05:56;;;;;;;3.73;1.20;;;;;;;14.79;64.64;101806.59;5012493;28;20204;-85
2022/10/09 10:08:25;;;;;;;3.20;1.10;;;;;;;14.86;63.99;101801.72;5005408;28;20230;-84
2022/10/09 10:10:55;;;;;;;3.20;1.00;;;;;;;14.92;63.70;101799.50;5013397;28;20622;-85
2022/10/09 10:13:25;;;;;;;2.20;0.90;;;;;;;15.00;63.10;101799.03;5010354;28;20221;-85
2022/10/09 10:15:55;;;;;;;7.93;2.10;;;;;;;15.08;62.50;101790.47;5013950;28;20203;-84
2022/10/09 10:18:24;;;;;;;3.90;1.03;;;;;;;15.13;61.84;101796.41;5011005;28;20245;-85
2022/10/09 10:20:52;;;;;;;4.13;1.27;;;;;;;15.18;61.55;101786.25;5010830;28;21070;-86
2022/10/09 10:23:22;;;;;;;5.93;1.40;;;;;;;15.25;61.95;101793.78;5016403;28;20239;-82
2022/10/09 10:25:51;;;;;;;3.57;1.53;;;;;;;15.33;61.59;101796.00;5010182;28;20201;-83
2022/10/09 10:28:27;;;;;;;5.10;1.30;;;;;;;15.40;61.43;101793.78;5010469;28;20252;-86
2022/10/09 10:30:56;;;;;;;6.37;1.60;;;;;;;15.46;60.87;101790.69;5005772;28;20200;-83
2022/10/09 10:33:29;;;;;;;3.50;1.10;;;;;;;15.49;60.27;101780.59;5015170;28;20691;-85
2022/10/09 10:35:58;;;;;;;3.70;1.23;;;;;;;15.51;60.34;101778.69;5011919;28;20216;-83
2022/10/09 10:38:29;;;;;;;4.50;1.10;;;;;;;15.52;59.67;101782.22;5009465;28;20224;-85
2022/10/09 10:41:03;;;;;;;2.70;0.97;;;;;;;15.53;59.44;101782.13;5009526;28;20227;-85
2022/10/09 10:43:35;;;;;;;4.40;0.90;;;;;;;15.56;59.96;101776.59;5009436;28;20210;-86
2022/10/09 10:46:10;;;;;;;5.73;1.23;;;;;;;15.63;59.84;101771.66;5014816;28;20200;-86
2022/10/09 10:48:40;;;;;;;3.67;1.27;;;;;;;15.66;59.91;101771.47;5008287;28;20257;-83
2022/10/09 10:51:27;;;;;;;2.80;0.87;;;;;;;15.68;59.29;101764.16;5014610;28;20262;-85
2022/10/09 10:54:08;;;;;;;5.57;1.20;;;;;;;15.69;59.02;101767.72;5014562;28;20276;-84
2022/10/09 10:56:38;;;;;;;7.17;1.43;;;;;;;15.69;58.77;101759.66;5014859;28;20685;-84
2022/10/09 10:59:23;;;;;;;5.37;1.30;;;;;;;15.69;58.52;101759.66;5015126;28;20216;-86
2022/10/09 11:01:59;;;;;;;5.30;1.17;;;;;;;15.71;58.09;101753.22;5008262;28;20503;-86
2022/10/09 11:04:46;;;;;;;4.13;1.00;;;;;;;15.73;58.32;101753.13;5018017;28;20213;-85
2022/10/09 11:07:24;;;;;;;2.90;1.00;;;;;;;15.73;57.92;101742.38;5016831;28;20235;-84
2022/10/09 11:10:02;;;;;;;4.80;1.00;;;;;;;15.71;57.74;101749.66;5011912;28;20204;-84
2022/10/09 11:12:37;;;;;;;6.23;1.20;;;;;;;15.73;57.41;101740.56;5011635;28;20193;-82
2022/10/09 11:15:15;;;;;;;3.67;1.50;;;;;;;15.76;57.23;101736.81;5013582;28;20217;-85
2022/10/09 11:17:51;;;;;;;2.77;1.00;;;;;;;15.75;56.09;101729.72;5013826;28;20238;-85
2022/10/09 11:20:37;;;;;;;3.87;0.90;;;;;;;15.75;56.16;101735.06;5007714;28;20457;-85
2022/10/09 11:23:13;;;;;;;4.23;0.83;;;;;;;15.76;55.73;101721.56;5010598;28;20206;-84
2022/10/09 11:25:48;;;;;;;4.80;0.87;;;;;;;15.76;55.54;101715.31;5002919;28;20205;-86
2022/10/09 11:28:18;;;;;;;3.43;1.20;;;;;;;15.80;55.78;101714.13;5010652;28;20216;-85
2022/10/09 11:30:51;;;;;;;8.40;1.00;;;;;;;15.84;55.29;101715.63;5006121;28;20215;-85
2022/10/09 11:33:28;;;;;;;7.20;1.10;;;;;;;15.85;54.89;101710.16;5006145;28;20205;-85
2022/10/09 11:36:00;;;;;;;4.27;1.00;;;;;;;15.85;55.04;101706.63;5012504;28;20207;-84
2022/10/09 11:38:31;;;;;;;1.97;0.83;;;;;;;15.86;55.39;101709.19;5010922;28;20753;-85
2022/10/09 11:40:58;;;;;;;4.67;0.93;;;;;;;15.89;55.57;101700.06;5006318;28;20259;-83